Marshes Siding, Kentucky
Current Conditions -  °F | °C
As of 12:56 PM on Sunday 25 Jan 2015 (Local Time) from KEKQ Reporting Station
Clear Clear  
Wind Chill: 53°   Ceiling: Unl
Heat Index: 53°   Visibility: 10mi
Dew Point: 35°   Wind: 12mph
Humidity: 50%   Direction: 200°SSW
Pressure: 29.73"   Gusts: NA
Location:  36.74°N, 84.48°W
Report Text: KEKQ 251756Z AUTO 20010KT 10SM CLR 12/02 A2973 RMK AO2 58026 T01160016 10116 20016 SLP071
Loading
Personal Weather Stations






























Interactive Weather Map New forecast layout! Learn more

10-Day Weather Forecast

Advertisements
Track Severe Weather on mobile